sensor_id;sensor_type;location;lat;lon;timestamp;P1;durP1;ratioP1;P2;durP2;ratioP2
12878;SDS011;20617;49.476;10.986;2024-02-26T00:01:13;8.25;;;6.05;;
12878;SDS011;20617;49.476;10.986;2024-02-26T00:03:14;9.23;;;5.35;;
12878;SDS011;20617;49.476;10.986;2024-02-26T00:05:14;7.65;;;5.60;;
12878;SDS011;20617;49.476;10.986;2024-02-26T00:07:15;8.10;;;5.30;;
12878;SDS011;20617;49.476;10.986;2024-02-26T00:09:16;6.75;;;4.88;;
12878;SDS011;20617;49.476;10.986;2024-02-26T00:11:16;7.72;;;4.65;;
12878;SDS011;20617;49.476;10.986;2024-02-26T00:13:17;6.53;;;5.05;;
12878;SDS011;20617;49.476;10.986;2024-02-26T00:15:18;7.32;;;4.93;;
12878;SDS011;20617;49.476;10.986;2024-02-26T00:17:21;9.13;;;6.15;;
12878;SDS011;20617;49.476;10.986;2024-02-26T00:19:22;7.47;;;4.93;;
12878;SDS011;20617;49.476;10.986;2024-02-26T00:21:23;7.65;;;4.88;;
12878;SDS011;20617;49.476;10.986;2024-02-26T00:23:23;7.88;;;5.25;;
12878;SDS011;20617;49.476;10.986;2024-02-26T00:25:24;7.53;;;4.90;;
12878;SDS011;20617;49.476;10.986;2024-02-26T00:27:25;6.35;;;4.57;;
12878;SDS011;20617;49.476;10.986;2024-02-26T00:29:25;6.35;;;4.22;;
12878;SDS011;20617;49.476;10.986;2024-02-26T00:31:26;6.85;;;4.85;;
12878;SDS011;20617;49.476;10.986;2024-02-26T00:33:30;9.10;;;6.00;;
12878;SDS011;20617;49.476;10.986;2024-02-26T00:35:30;8.60;;;5.38;;
12878;SDS011;20617;49.476;10.986;2024-02-26T00:37:31;9.02;;;5.95;;
12878;SDS011;20617;49.476;10.986;2024-02-26T00:39:32;10.15;;;5.95;;
12878;SDS011;20617;49.476;10.986;2024-02-26T00:41:33;9.70;;;5.75;;
12878;SDS011;20617;49.476;10.986;2024-02-26T00:43:33;9.50;;;5.97;;
12878;SDS011;20617;49.476;10.986;2024-02-26T00:45:34;9.50;;;6.20;;
12878;SDS011;20617;49.476;10.986;2024-02-26T00:47:35;9.55;;;5.97;;
12878;SDS011;20617;49.476;10.986;2024-02-26T00:49:39;10.10;;;6.32;;
12878;SDS011;20617;49.476;10.986;2024-02-26T00:51:40;9.00;;;6.20;;
12878;SDS011;20617;49.476;10.986;2024-02-26T00:53:40;9.95;;;6.45;;
12878;SDS011;20617;49.476;10.986;2024-02-26T00:55:41;11.05;;;7.38;;
12878;SDS011;20617;49.476;10.986;2024-02-26T00:57:42;11.65;;;7.22;;
12878;SDS011;20617;49.476;10.986;2024-02-26T00:59:43;10.45;;;6.68;;
12878;SDS011;20617;49.476;10.986;2024-02-26T01:01:43;10.00;;;6.95;;
12878;SDS011;20617;49.476;10.986;2024-02-26T01:03:44;11.52;;;7.35;;
12878;SDS011;20617;49.476;10.986;2024-02-26T01:05:48;11.65;;;7.22;;
12878;SDS011;20617;49.476;10.986;2024-02-26T01:07:49;11.52;;;7.57;;
12878;SDS011;20617;49.476;10.986;2024-02-26T01:09:50;9.43;;;6.72;;
12878;SDS011;20617;49.476;10.986;2024-02-26T01:11:50;9.20;;;6.32;;
12878;SDS011;20617;49.476;10.986;2024-02-26T01:13:51;9.48;;;6.93;;
12878;SDS011;20617;49.476;10.986;2024-02-26T01:15:52;8.80;;;6.18;;
12878;SDS011;20617;49.476;10.986;2024-02-26T01:17:53;11.23;;;7.35;;
12878;SDS011;20617;49.476;10.986;2024-02-26T01:19:55;9.55;;;6.63;;
12878;SDS011;20617;49.476;10.986;2024-02-26T01:21:59;9.10;;;6.45;;
12878;SDS011;20617;49.476;10.986;2024-02-26T01:24:00;8.90;;;6.05;;
12878;SDS011;20617;49.476;10.986;2024-02-26T01:26:01;9.63;;;5.82;;
12878;SDS011;20617;49.476;10.986;2024-02-26T01:28:02;8.27;;;6.00;;
12878;SDS011;20617;49.476;10.986;2024-02-26T01:30:03;8.32;;;6.05;;
12878;SDS011;20617;49.476;10.986;2024-02-26T01:32:05;10.57;;;7.05;;
12878;SDS011;20617;49.476;10.986;2024-02-26T01:34:08;9.82;;;6.70;;
12878;SDS011;20617;49.476;10.986;2024-02-26T01:36:09;8.50;;;5.60;;
12878;SDS011;20617;49.476;10.986;2024-02-26T01:38:13;9.90;;;5.80;;
12878;SDS011;20617;49.476;10.986;2024-02-26T01:40:13;7.43;;;5.20;;
12878;SDS011;20617;49.476;10.986;2024-02-26T01:42:14;7.55;;;5.30;;
12878;SDS011;20617;49.476;10.986;2024-02-26T01:44:15;9.40;;;6.30;;
12878;SDS011;20617;49.476;10.986;2024-02-26T01:46:16;8.75;;;5.43;;
12878;SDS011;20617;49.476;10.986;2024-02-26T01:48:17;10.40;;;5.78;;
12878;SDS011;20617;49.476;10.986;2024-02-26T01:50:18;8.02;;;5.60;;
12878;SDS011;20617;49.476;10.986;2024-02-26T01:52:19;8.55;;;5.75;;
12878;SDS011;20617;49.476;10.986;2024-02-26T01:54:24;8.48;;;5.78;;
12878;SDS011;20617;49.476;10.986;2024-02-26T01:56:25;7.60;;;5.85;;
12878;SDS011;20617;49.476;10.986;2024-02-26T01:58:28;9.57;;;6.57;;
12878;SDS011;20617;49.476;10.986;2024-02-26T02:00:29;8.73;;;6.40;;
12878;SDS011;20617;49.476;10.986;2024-02-26T02:02:30;9.43;;;6.20;;
12878;SDS011;20617;49.476;10.986;2024-02-26T02:04:31;8.27;;;6.25;;
12878;SDS011;20617;49.476;10.986;2024-02-26T02:06:33;10.07;;;6.47;;
12878;SDS011;20617;49.476;10.986;2024-02-26T02:08:35;9.70;;;6.30;;
12878;SDS011;20617;49.476;10.986;2024-02-26T02:10:38;9.50;;;6.50;;
12878;SDS011;20617;49.476;10.986;2024-02-26T02:12:40;11.93;;;6.47;;
12878;SDS011;20617;49.476;10.986;2024-02-26T02:14:40;7.88;;;5.85;;
12878;SDS011;20617;49.476;10.986;2024-02-26T02:16:41;10.32;;;6.65;;
12878;SDS011;20617;49.476;10.986;2024-02-26T02:18:42;11.18;;;6.93;;
12878;SDS011;20617;49.476;10.986;2024-02-26T02:20:46;9.88;;;6.65;;
12878;SDS011;20617;49.476;10.986;2024-02-26T02:22:46;9.15;;;6.32;;
12878;SDS011;20617;49.476;10.986;2024-02-26T02:24:48;10.30;;;6.72;;
12878;SDS011;20617;49.476;10.986;2024-02-26T02:26:49;12.73;;;9.05;;
12878;SDS011;20617;49.476;10.986;2024-02-26T02:28:50;11.80;;;7.85;;
12878;SDS011;20617;49.476;10.986;2024-02-26T02:30:51;10.75;;;6.97;;
12878;SDS011;20617;49.476;10.986;2024-02-26T02:32:52;10.98;;;7.20;;
12878;SDS011;20617;49.476;10.986;2024-02-26T02:34:53;11.10;;;7.70;;
12878;SDS011;20617;49.476;10.986;2024-02-26T02:36:57;9.18;;;7.07;;
12878;SDS011;20617;49.476;10.986;2024-02-26T02:38:58;10.93;;;7.15;;
12878;SDS011;20617;49.476;10.986;2024-02-26T02:40:59;11.27;;;7.25;;
12878;SDS011;20617;49.476;10.986;2024-02-26T02:43:00;9.55;;;6.45;;
12878;SDS011;20617;49.476;10.986;2024-02-26T02:45:02;9.15;;;6.55;;
12878;SDS011;20617;49.476;10.986;2024-02-26T02:47:03;8.32;;;5.90;;
12878;SDS011;20617;49.476;10.986;2024-02-26T02:49:04;9.73;;;6.55;;
12878;SDS011;20617;49.476;10.986;2024-02-26T02:51:09;11.02;;;6.72;;
12878;SDS011;20617;49.476;10.986;2024-02-26T02:53:12;9.68;;;7.10;;
12878;SDS011;20617;49.476;10.986;2024-02-26T02:55:13;12.27;;;7.28;;
12878;SDS011;20617;49.476;10.986;2024-02-26T02:57:14;10.25;;;7.22;;
12878;SDS011;20617;49.476;10.986;2024-02-26T02:59:16;12.02;;;8.25;;
12878;SDS011;20617;49.476;10.986;2024-02-26T03:01:17;10.93;;;7.28;;
12878;SDS011;20617;49.476;10.986;2024-02-26T03:03:17;12.93;;;8.27;;
12878;SDS011;20617;49.476;10.986;2024-02-26T03:05:18;12.45;;;8.20;;
12878;SDS011;20617;49.476;10.986;2024-02-26T03:07:19;12.15;;;7.65;;
12878;SDS011;20617;49.476;10.986;2024-02-26T03:09:22;11.55;;;7.60;;
12878;SDS011;20617;49.476;10.986;2024-02-26T03:11:23;13.02;;;7.80;;
12878;SDS011;20617;49.476;10.986;2024-02-26T03:13:24;11.13;;;8.10;;
12878;SDS011;20617;49.476;10.986;2024-02-26T03:15:25;11.65;;;7.85;;
12878;SDS011;20617;49.476;10.986;2024-02-26T03:17:25;11.18;;;7.20;;
12878;SDS011;20617;49.476;10.986;2024-02-26T03:19:26;12.40;;;8.05;;
12878;SDS011;20617;49.476;10.986;2024-02-26T03:21:27;12.43;;;8.15;;
12878;SDS011;20617;49.476;10.986;2024-02-26T03:23:28;10.95;;;7.22;;
12878;SDS011;20617;49.476;10.986;2024-02-26T03:25:31;13.40;;;7.03;;
12878;SDS011;20617;49.476;10.986;2024-02-26T03:27:32;10.82;;;7.07;;
12878;SDS011;20617;49.476;10.986;2024-02-26T03:29:32;10.57;;;7.03;;
12878;SDS011;20617;49.476;10.986;2024-02-26T03:31:33;9.65;;;6.80;;
12878;SDS011;20617;49.476;10.986;2024-02-26T03:33:34;10.75;;;7.13;;
12878;SDS011;20617;49.476;10.986;2024-02-26T03:35:37;8.68;;;6.30;;
12878;SDS011;20617;49.476;10.986;2024-02-26T03:37:37;10.30;;;7.20;;
12878;SDS011;20617;49.476;10.986;2024-02-26T03:39:38;10.68;;;7.28;;
12878;SDS011;20617;49.476;10.986;2024-02-26T03:41:42;9.60;;;6.60;;
12878;SDS011;20617;49.476;10.986;2024-02-26T03:43:42;10.20;;;7.55;;
12878;SDS011;20617;49.476;10.986;2024-02-26T03:45:45;13.32;;;7.70;;
12878;SDS011;20617;49.476;10.986;2024-02-26T03:47:47;12.00;;;8.18;;
12878;SDS011;20617;49.476;10.986;2024-02-26T03:49:48;11.48;;;6.88;;
12878;SDS011;20617;49.476;10.986;2024-02-26T03:51:48;14.65;;;8.10;;
12878;SDS011;20617;49.476;10.986;2024-02-26T03:53:49;12.27;;;7.07;;
12878;SDS011;20617;49.476;10.986;2024-02-26T03:55:50;10.13;;;6.88;;
12878;SDS011;20617;49.476;10.986;2024-02-26T03:57:54;11.00;;;6.72;;
12878;SDS011;20617;49.476;10.986;2024-02-26T03:59:55;12.10;;;8.00;;
12878;SDS011;20617;49.476;10.986;2024-02-26T04:01:56;9.45;;;6.85;;
12878;SDS011;20617;49.476;10.986;2024-02-26T04:03:57;11.25;;;7.03;;
12878;SDS011;20617;49.476;10.986;2024-02-26T04:05:58;9.00;;;6.47;;
12878;SDS011;20617;49.476;10.986;2024-02-26T04:07:58;11.52;;;7.18;;
12878;SDS011;20617;49.476;10.986;2024-02-26T04:09:59;11.90;;;7.35;;
12878;SDS011;20617;49.476;10.986;2024-02-26T04:12:00;11.50;;;7.00;;
12878;SDS011;20617;49.476;10.986;2024-02-26T04:14:04;10.00;;;7.07;;
12878;SDS011;20617;49.476;10.986;2024-02-26T04:16:05;10.93;;;7.03;;
12878;SDS011;20617;49.476;10.986;2024-02-26T04:18:06;10.30;;;7.15;;
12878;SDS011;20617;49.476;10.986;2024-02-26T04:20:07;10.50;;;6.75;;
12878;SDS011;20617;49.476;10.986;2024-02-26T04:22:13;12.68;;;7.10;;
12878;SDS011;20617;49.476;10.986;2024-02-26T04:24:13;9.40;;;6.40;;
12878;SDS011;20617;49.476;10.986;2024-02-26T04:26:14;10.30;;;7.00;;
12878;SDS011;20617;49.476;10.986;2024-02-26T04:28:15;11.85;;;6.68;;
12878;SDS011;20617;49.476;10.986;2024-02-26T04:30:18;12.13;;;7.78;;
12878;SDS011;20617;49.476;10.986;2024-02-26T04:32:19;9.32;;;6.00;;
12878;SDS011;20617;49.476;10.986;2024-02-26T04:34:20;10.05;;;6.65;;
12878;SDS011;20617;49.476;10.986;2024-02-26T04:36:21;9.57;;;6.50;;
12878;SDS011;20617;49.476;10.986;2024-02-26T04:38:22;9.77;;;6.45;;
12878;SDS011;20617;49.476;10.986;2024-02-26T04:40:23;10.05;;;6.30;;
12878;SDS011;20617;49.476;10.986;2024-02-26T04:42:24;9.48;;;5.72;;
12878;SDS011;20617;49.476;10.986;2024-02-26T04:44:25;10.75;;;6.80;;
12878;SDS011;20617;49.476;10.986;2024-02-26T04:46:30;11.68;;;7.72;;
12878;SDS011;20617;49.476;10.986;2024-02-26T04:48:30;10.25;;;6.47;;
12878;SDS011;20617;49.476;10.986;2024-02-26T04:50:31;11.93;;;8.00;;
12878;SDS011;20617;49.476;10.986;2024-02-26T04:52:32;10.45;;;6.97;;
12878;SDS011;20617;49.476;10.986;2024-02-26T04:54:33;9.82;;;6.65;;
12878;SDS011;20617;49.476;10.986;2024-02-26T04:56:33;11.80;;;7.43;;
12878;SDS011;20617;49.476;10.986;2024-02-26T04:58:34;10.32;;;7.63;;
12878;SDS011;20617;49.476;10.986;2024-02-26T05:00:35;10.48;;;6.80;;
12878;SDS011;20617;49.476;10.986;2024-02-26T05:02:38;12.32;;;7.78;;
12878;SDS011;20617;49.476;10.986;2024-02-26T05:04:39;11.98;;;7.20;;
12878;SDS011;20617;49.476;10.986;2024-02-26T05:06:41;9.40;;;6.63;;
12878;SDS011;20617;49.476;10.986;2024-02-26T05:08:42;10.68;;;5.93;;
12878;SDS011;20617;49.476;10.986;2024-02-26T05:10:44;8.48;;;5.72;;
12878;SDS011;20617;49.476;10.986;2024-02-26T05:12:45;10.15;;;6.45;;
12878;SDS011;20617;49.476;10.986;2024-02-26T05:14:46;15.23;;;8.45;;
12878;SDS011;20617;49.476;10.986;2024-02-26T05:16:46;13.82;;;7.72;;
12878;SDS011;20617;49.476;10.986;2024-02-26T05:18:54;12.13;;;6.80;;
12878;SDS011;20617;49.476;10.986;2024-02-26T05:20:55;10.20;;;6.30;;
12878;SDS011;20617;49.476;10.986;2024-02-26T05:22:56;10.57;;;6.70;;
12878;SDS011;20617;49.476;10.986;2024-02-26T05:24:56;11.77;;;6.97;;
12878;SDS011;20617;49.476;10.986;2024-02-26T05:26:57;9.73;;;5.72;;
12878;SDS011;20617;49.476;10.986;2024-02-26T05:29:00;9.25;;;5.80;;
12878;SDS011;20617;49.476;10.986;2024-02-26T05:31:00;10.68;;;6.05;;
12878;SDS011;20617;49.476;10.986;2024-02-26T05:33:02;9.05;;;5.88;;
12878;SDS011;20617;49.476;10.986;2024-02-26T05:35:07;9.55;;;6.43;;
12878;SDS011;20617;49.476;10.986;2024-02-26T05:37:07;10.10;;;6.13;;
12878;SDS011;20617;49.476;10.986;2024-02-26T05:39:08;9.13;;;6.00;;
12878;SDS011;20617;49.476;10.986;2024-02-26T05:41:09;9.10;;;6.43;;
12878;SDS011;20617;49.476;10.986;2024-02-26T05:43:10;9.30;;;6.07;;
12878;SDS011;20617;49.476;10.986;2024-02-26T05:45:11;6.47;;;4.60;;
12878;SDS011;20617;49.476;10.986;2024-02-26T05:47:12;12.27;;;6.82;;
12878;SDS011;20617;49.476;10.986;2024-02-26T05:49:12;9.13;;;6.00;;
12878;SDS011;20617;49.476;10.986;2024-02-26T05:53:33;9.73;;;6.20;;
12878;SDS011;20617;49.476;10.986;2024-02-26T05:55:33;10.68;;;6.93;;
12878;SDS011;20617;49.476;10.986;2024-02-26T05:57:34;9.10;;;5.50;;
12878;SDS011;20617;49.476;10.986;2024-02-26T05:59:36;10.68;;;5.85;;
12878;SDS011;20617;49.476;10.986;2024-02-26T06:01:36;11.30;;;7.70;;
12878;SDS011;20617;49.476;10.986;2024-02-26T06:03:38;10.93;;;7.35;;
12878;SDS011;20617;49.476;10.986;2024-02-26T06:05:39;10.55;;;7.82;;
12878;SDS011;20617;49.476;10.986;2024-02-26T06:07:43;12.38;;;8.00;;
12878;SDS011;20617;49.476;10.986;2024-02-26T06:09:44;10.27;;;6.82;;
12878;SDS011;20617;49.476;10.986;2024-02-26T06:11:44;11.05;;;7.30;;
12878;SDS011;20617;49.476;10.986;2024-02-26T06:13:45;12.70;;;7.75;;
12878;SDS011;20617;49.476;10.986;2024-02-26T06:15:47;10.52;;;6.57;;
12878;SDS011;20617;49.476;10.986;2024-02-26T06:17:48;10.80;;;6.47;;
12878;SDS011;20617;49.476;10.986;2024-02-26T06:19:49;10.82;;;6.00;;
12878;SDS011;20617;49.476;10.986;2024-02-26T06:21:49;9.48;;;5.80;;
12878;SDS011;20617;49.476;10.986;2024-02-26T06:23:53;13.70;;;6.30;;
12878;SDS011;20617;49.476;10.986;2024-02-26T06:25:53;8.70;;;5.03;;
12878;SDS011;20617;49.476;10.986;2024-02-26T06:27:54;11.85;;;5.88;;
12878;SDS011;20617;49.476;10.986;2024-02-26T06:29:55;10.07;;;5.82;;
12878;SDS011;20617;49.476;10.986;2024-02-26T06:31:56;8.80;;;6.03;;
12878;SDS011;20617;49.476;10.986;2024-02-26T06:33:57;10.77;;;6.50;;
12878;SDS011;20617;49.476;10.986;2024-02-26T06:35:57;11.48;;;7.18;;
12878;SDS011;20617;49.476;10.986;2024-02-26T06:37:59;11.27;;;6.93;;
12878;SDS011;20617;49.476;10.986;2024-02-26T06:40:03;10.95;;;6.72;;
12878;SDS011;20617;49.476;10.986;2024-02-26T06:42:04;10.02;;;7.10;;
12878;SDS011;20617;49.476;10.986;2024-02-26T06:44:06;12.00;;;6.90;;
12878;SDS011;20617;49.476;10.986;2024-02-26T06:46:06;13.93;;;7.45;;
12878;SDS011;20617;49.476;10.986;2024-02-26T06:48:07;12.63;;;7.47;;
12878;SDS011;20617;49.476;10.986;2024-02-26T06:50:08;9.02;;;6.15;;
12878;SDS011;20617;49.476;10.986;2024-02-26T06:52:12;10.55;;;5.28;;
12878;SDS011;20617;49.476;10.986;2024-02-26T06:54:12;9.07;;;6.00;;
12878;SDS011;20617;49.476;10.986;2024-02-26T06:56:19;8.93;;;5.55;;
12878;SDS011;20617;49.476;10.986;2024-02-26T06:58:19;8.85;;;5.05;;
12878;SDS011;20617;49.476;10.986;2024-02-26T07:00:20;6.88;;;4.72;;
12878;SDS011;20617;49.476;10.986;2024-02-26T07:02:21;6.82;;;4.90;;
12878;SDS011;20617;49.476;10.986;2024-02-26T07:04:22;8.13;;;4.80;;
12878;SDS011;20617;49.476;10.986;2024-02-26T07:06:22;11.27;;;4.93;;
12878;SDS011;20617;49.476;10.986;2024-02-26T07:08:26;7.32;;;4.72;;
12878;SDS011;20617;49.476;10.986;2024-02-26T07:10:26;12.50;;;5.07;;
12878;SDS011;20617;49.476;10.986;2024-02-26T07:12:30;8.55;;;5.78;;
12878;SDS011;20617;49.476;10.986;2024-02-26T07:14:30;8.45;;;5.45;;
12878;SDS011;20617;49.476;10.986;2024-02-26T07:16:31;8.50;;;5.03;;
12878;SDS011;20617;49.476;10.986;2024-02-26T07:18:32;8.50;;;4.97;;
12878;SDS011;20617;49.476;10.986;2024-02-26T07:20:33;7.30;;;4.93;;
12878;SDS011;20617;49.476;10.986;2024-02-26T07:22:34;7.60;;;4.45;;
12878;SDS011;20617;49.476;10.986;2024-02-26T07:24:34;7.57;;;5.20;;
12878;SDS011;20617;49.476;10.986;2024-02-26T07:26:35;8.93;;;4.72;;
12878;SDS011;20617;49.476;10.986;2024-02-26T07:28:40;6.85;;;4.80;;
12878;SDS011;20617;49.476;10.986;2024-02-26T07:30:41;8.10;;;4.97;;
12878;SDS011;20617;49.476;10.986;2024-02-26T07:32:44;7.63;;;5.15;;
12878;SDS011;20617;49.476;10.986;2024-02-26T07:34:45;9.90;;;5.50;;
12878;SDS011;20617;49.476;10.986;2024-02-26T07:36:46;7.75;;;5.28;;
12878;SDS011;20617;49.476;10.986;2024-02-26T07:38:47;8.32;;;5.72;;
12878;SDS011;20617;49.476;10.986;2024-02-26T07:40:48;8.77;;;5.18;;
12878;SDS011;20617;49.476;10.986;2024-02-26T07:42:50;7.50;;;4.65;;
12878;SDS011;20617;49.476;10.986;2024-02-26T07:44:53;12.68;;;4.97;;
12878;SDS011;20617;49.476;10.986;2024-02-26T07:46:54;7.85;;;4.60;;
12878;SDS011;20617;49.476;10.986;2024-02-26T07:48:55;10.40;;;5.47;;
12878;SDS011;20617;49.476;10.986;2024-02-26T07:50:56;7.22;;;4.35;;
12878;SDS011;20617;49.476;10.986;2024-02-26T07:52:56;9.07;;;5.03;;
12878;SDS011;20617;49.476;10.986;2024-02-26T07:54:58;7.72;;;5.10;;
12878;SDS011;20617;49.476;10.986;2024-02-26T07:56:58;6.50;;;4.60;;
12878;SDS011;20617;49.476;10.986;2024-02-26T07:58:59;6.95;;;4.35;;
12878;SDS011;20617;49.476;10.986;2024-02-26T08:01:03;6.63;;;4.50;;
12878;SDS011;20617;49.476;10.986;2024-02-26T08:03:04;5.35;;;3.70;;
12878;SDS011;20617;49.476;10.986;2024-02-26T08:05:05;9.48;;;4.70;;
12878;SDS011;20617;49.476;10.986;2024-02-26T08:07:06;6.65;;;4.28;;
12878;SDS011;20617;49.476;10.986;2024-02-26T08:09:07;6.90;;;4.30;;
12878;SDS011;20617;49.476;10.986;2024-02-26T08:11:08;7.93;;;4.20;;
12878;SDS011;20617;49.476;10.986;2024-02-26T08:13:09;5.45;;;3.70;;
12878;SDS011;20617;49.476;10.986;2024-02-26T08:15:09;9.48;;;4.20;;
12878;SDS011;20617;49.476;10.986;2024-02-26T08:17:13;6.95;;;4.32;;
12878;SDS011;20617;49.476;10.986;2024-02-26T08:19:14;7.00;;;3.70;;
12878;SDS011;20617;49.476;10.986;2024-02-26T08:21:14;7.50;;;4.15;;
12878;SDS011;20617;49.476;10.986;2024-02-26T08:23:15;6.03;;;3.80;;
12878;SDS011;20617;49.476;10.986;2024-02-26T08:25:16;8.52;;;4.68;;
12878;SDS011;20617;49.476;10.986;2024-02-26T08:27:17;8.05;;;4.32;;
12878;SDS011;20617;49.476;10.986;2024-02-26T08:29:17;7.95;;;4.30;;
12878;SDS011;20617;49.476;10.986;2024-02-26T08:31:18;6.78;;;4.28;;
12878;SDS011;20617;49.476;10.986;2024-02-26T08:33:22;5.57;;;3.60;;
12878;SDS011;20617;49.476;10.986;2024-02-26T08:35:24;6.72;;;4.15;;
12878;SDS011;20617;49.476;10.986;2024-02-26T08:37:25;6.78;;;4.05;;
12878;SDS011;20617;49.476;10.986;2024-02-26T08:39:26;5.50;;;3.85;;
12878;SDS011;20617;49.476;10.986;2024-02-26T08:41:27;7.75;;;3.70;;
12878;SDS011;20617;49.476;10.986;2024-02-26T08:43:28;5.07;;;3.42;;
12878;SDS011;20617;49.476;10.986;2024-02-26T08:45:29;6.68;;;4.15;;
12878;SDS011;20617;49.476;10.986;2024-02-26T08:47:30;12.68;;;4.63;;
12878;SDS011;20617;49.476;10.986;2024-02-26T08:49:34;8.57;;;4.65;;
12878;SDS011;20617;49.476;10.986;2024-02-26T08:51:34;7.18;;;3.65;;
12878;SDS011;20617;49.476;10.986;2024-02-26T08:53:35;8.13;;;3.60;;
12878;SDS011;20617;49.476;10.986;2024-02-26T08:55:36;7.22;;;3.53;;
12878;SDS011;20617;49.476;10.986;2024-02-26T08:57:37;7.75;;;3.90;;
12878;SDS011;20617;49.476;10.986;2024-02-26T08:59:37;8.60;;;4.32;;
12878;SDS011;20617;49.476;10.986;2024-02-26T09:01:38;5.00;;;3.42;;
12878;SDS011;20617;49.476;10.986;2024-02-26T09:03:39;9.88;;;4.38;;
12878;SDS011;20617;49.476;10.986;2024-02-26T09:05:43;7.32;;;3.80;;
12878;SDS011;20617;49.476;10.986;2024-02-26T09:07:44;9.95;;;4.32;;
12878;SDS011;20617;49.476;10.986;2024-02-26T09:09:44;9.10;;;4.20;;
12878;SDS011;20617;49.476;10.986;2024-02-26T09:11:45;7.97;;;4.75;;
12878;SDS011;20617;49.476;10.986;2024-02-26T09:13:46;7.68;;;4.03;;
12878;SDS011;20617;49.476;10.986;2024-02-26T09:15:47;5.70;;;3.80;;
12878;SDS011;20617;49.476;10.986;2024-02-26T09:17:48;6.20;;;3.92;;
12878;SDS011;20617;49.476;10.986;2024-02-26T09:19:48;8.65;;;4.25;;
12878;SDS011;20617;49.476;10.986;2024-02-26T09:21:52;7.40;;;4.15;;
12878;SDS011;20617;49.476;10.986;2024-02-26T09:23:53;6.72;;;3.95;;
12878;SDS011;20617;49.476;10.986;2024-02-26T09:25:54;6.55;;;3.15;;
12878;SDS011;20617;49.476;10.986;2024-02-26T09:27:55;7.53;;;4.35;;
12878;SDS011;20617;49.476;10.986;2024-02-26T09:29:56;7.88;;;4.30;;
12878;SDS011;20617;49.476;10.986;2024-02-26T09:31:57;5.93;;;4.30;;
12878;SDS011;20617;49.476;10.986;2024-02-26T09:33:57;6.43;;;4.30;;
12878;SDS011;20617;49.476;10.986;2024-02-26T09:35:58;7.72;;;4.07;;
12878;SDS011;20617;49.476;10.986;2024-02-26T09:38:07;8.50;;;4.10;;
12878;SDS011;20617;49.476;10.986;2024-02-26T09:40:08;8.77;;;3.67;;
12878;SDS011;20617;49.476;10.986;2024-02-26T09:42:09;6.85;;;4.38;;
12878;SDS011;20617;49.476;10.986;2024-02-26T09:44:13;7.70;;;4.35;;
12878;SDS011;20617;49.476;10.986;2024-02-26T09:46:18;10.63;;;4.15;;
12878;SDS011;20617;49.476;10.986;2024-02-26T09:48:19;6.82;;;3.90;;
12878;SDS011;20617;49.476;10.986;2024-02-26T09:50:20;7.05;;;3.60;;
12878;SDS011;20617;49.476;10.986;2024-02-26T09:52:22;5.55;;;3.63;;
12878;SDS011;20617;49.476;10.986;2024-02-26T09:54:28;4.80;;;3.10;;
12878;SDS011;20617;49.476;10.986;2024-02-26T09:56:31;4.72;;;3.42;;
12878;SDS011;20617;49.476;10.986;2024-02-26T09:58:31;7.47;;;3.90;;
12878;SDS011;20617;49.476;10.986;2024-02-26T10:00:35;5.25;;;3.30;;
12878;SDS011;20617;49.476;10.986;2024-02-26T10:02:38;5.73;;;3.50;;
12878;SDS011;20617;49.476;10.986;2024-02-26T10:04:42;6.18;;;3.60;;
12878;SDS011;20617;49.476;10.986;2024-02-26T10:06:43;6.20;;;3.15;;
12878;SDS011;20617;49.476;10.986;2024-02-26T10:08:46;6.30;;;2.92;;
12878;SDS011;20617;49.476;10.986;2024-02-26T10:10:50;4.13;;;3.08;;
12878;SDS011;20617;49.476;10.986;2024-02-26T10:12:51;4.40;;;3.40;;
12878;SDS011;20617;49.476;10.986;2024-02-26T10:14:52;7.18;;;3.28;;
12878;SDS011;20617;49.476;10.986;2024-02-26T10:16:52;5.05;;;3.28;;
12878;SDS011;20617;49.476;10.986;2024-02-26T10:18:53;7.93;;;3.70;;
12878;SDS011;20617;49.476;10.986;2024-02-26T10:21:03;8.50;;;3.60;;
12878;SDS011;20617;49.476;10.986;2024-02-26T10:23:04;5.32;;;3.28;;
12878;SDS011;20617;49.476;10.986;2024-02-26T10:25:05;4.90;;;3.25;;
12878;SDS011;20617;49.476;10.986;2024-02-26T10:27:09;4.85;;;3.30;;
12878;SDS011;20617;49.476;10.986;2024-02-26T10:29:10;7.43;;;3.97;;
12878;SDS011;20617;49.476;10.986;2024-02-26T10:31:11;5.65;;;3.20;;
12878;SDS011;20617;49.476;10.986;2024-02-26T10:33:14;5.05;;;3.22;;
12878;SDS011;20617;49.476;10.986;2024-02-26T10:35:18;8.50;;;3.47;;
12878;SDS011;20617;49.476;10.986;2024-02-26T10:37:19;4.65;;;3.20;;
12878;SDS011;20617;49.476;10.986;2024-02-26T10:39:20;5.47;;;3.42;;
12878;SDS011;20617;49.476;10.986;2024-02-26T10:41:22;4.25;;;3.00;;
12878;SDS011;20617;49.476;10.986;2024-02-26T10:43:26;3.97;;;3.05;;
12878;SDS011;20617;49.476;10.986;2024-02-26T10:45:28;4.53;;;3.05;;
12878;SDS011;20617;49.476;10.986;2024-02-26T10:47:28;6.03;;;3.70;;
12878;SDS011;20617;49.476;10.986;2024-02-26T10:49:29;5.30;;;3.20;;
12878;SDS011;20617;49.476;10.986;2024-02-26T10:51:30;7.93;;;4.03;;
12878;SDS011;20617;49.476;10.986;2024-02-26T10:53:31;8.13;;;3.90;;
12878;SDS011;20617;49.476;10.986;2024-02-26T10:55:35;5.57;;;3.08;;
12878;SDS011;20617;49.476;10.986;2024-02-26T10:57:38;5.63;;;3.80;;
12878;SDS011;20617;49.476;10.986;2024-02-26T10:59:44;8.40;;;3.30;;
12878;SDS011;20617;49.476;10.986;2024-02-26T11:01:45;4.55;;;2.85;;
12878;SDS011;20617;49.476;10.986;2024-02-26T11:03:47;9.30;;;3.25;;
12878;SDS011;20617;49.476;10.986;2024-02-26T11:05:50;9.48;;;3.70;;
12878;SDS011;20617;49.476;10.986;2024-02-26T11:07:51;5.88;;;3.35;;
12878;SDS011;20617;49.476;10.986;2024-02-26T11:09:53;5.40;;;2.70;;
12878;SDS011;20617;49.476;10.986;2024-02-26T11:11:55;5.05;;;3.03;;
12878;SDS011;20617;49.476;10.986;2024-02-26T11:13:57;7.22;;;4.47;;
12878;SDS011;20617;49.476;10.986;2024-02-26T11:16:01;5.03;;;3.47;;
12878;SDS011;20617;49.476;10.986;2024-02-26T11:18:03;6.65;;;3.88;;
12878;SDS011;20617;49.476;10.986;2024-02-26T11:20:05;6.72;;;3.55;;
12878;SDS011;20617;49.476;10.986;2024-02-26T11:22:10;5.15;;;3.50;;
12878;SDS011;20617;49.476;10.986;2024-02-26T11:24:12;6.80;;;4.68;;
12878;SDS011;20617;49.476;10.986;2024-02-26T11:26:14;6.05;;;3.90;;
12878;SDS011;20617;49.476;10.986;2024-02-26T11:28:18;5.60;;;3.70;;
12878;SDS011;20617;49.476;10.986;2024-02-26T11:30:20;4.85;;;3.17;;
12878;SDS011;20617;49.476;10.986;2024-02-26T11:32:29;8.18;;;3.60;;
12878;SDS011;20617;49.476;10.986;2024-02-26T11:34:32;4.38;;;3.10;;
12878;SDS011;20617;49.476;10.986;2024-02-26T11:36:34;5.03;;;3.10;;
12878;SDS011;20617;49.476;10.986;2024-02-26T11:38:37;4.65;;;2.70;;
12878;SDS011;20617;49.476;10.986;2024-02-26T11:40:40;5.07;;;2.67;;
12878;SDS011;20617;49.476;10.986;2024-02-26T11:42:43;4.53;;;2.70;;
12878;SDS011;20617;49.476;10.986;2024-02-26T11:44:44;4.53;;;2.53;;
12878;SDS011;20617;49.476;10.986;2024-02-26T11:46:48;6.07;;;4.00;;
12878;SDS011;20617;49.476;10.986;2024-02-26T11:48:54;6.78;;;2.80;;
12878;SDS011;20617;49.476;10.986;2024-02-26T11:50:56;4.30;;;2.30;;
12878;SDS011;20617;49.476;10.986;2024-02-26T11:55:31;5.35;;;2.40;;
12878;SDS011;20617;49.476;10.986;2024-02-26T11:57:37;3.35;;;2.50;;
12878;SDS011;20617;49.476;10.986;2024-02-26T11:59:39;5.13;;;2.58;;
12878;SDS011;20617;49.476;10.986;2024-02-26T12:01:44;4.18;;;2.47;;
12878;SDS011;20617;49.476;10.986;2024-02-26T12:05:51;4.63;;;2.40;;